createdAt,value
2022-07-26T00:01:39.091Z,101110.97
2022-07-26T00:04:06.275Z,101127.41
2022-07-26T00:06:32.964Z,101128.56
2022-07-26T00:08:59.876Z,101127.66
2022-07-26T00:11:27.457Z,101130.50
2022-07-26T00:13:54.321Z,101112.31
2022-07-26T00:16:21.870Z,101140.25
2022-07-26T00:18:48.605Z,101129.28
2022-07-26T00:21:15.396Z,101137.38
2022-07-26T00:23:42.135Z,101070.66
2022-07-26T00:26:08.963Z,101113.66
2022-07-26T00:28:35.766Z,101107.44
2022-07-26T00:31:03.914Z,101078.91
2022-07-26T00:33:30.853Z,101137.56
2022-07-26T00:35:57.528Z,101119.59
2022-07-26T00:38:24.554Z,101137.03
2022-07-26T00:40:51.306Z,101147.47
2022-07-26T00:43:18.128Z,101161.72
2022-07-26T00:45:45.097Z,101146.41
2022-07-26T00:48:11.781Z,101129.41
2022-07-26T00:50:38.498Z,101104.94
2022-07-26T00:53:05.863Z,101146.59
2022-07-26T00:55:32.995Z,101139.41
2022-07-26T00:58:01.397Z,101124.69
2022-07-26T01:00:28.544Z,101138.38
2022-07-26T01:02:56.696Z,101156.19
2022-07-26T01:05:24.111Z,101146.84
2022-07-26T01:07:51.656Z,101134.09
2022-07-26T01:10:18.481Z,101130.13
2022-07-26T01:12:45.754Z,101139.66
2022-07-26T01:15:13.981Z,101121.38
2022-07-26T01:17:41.437Z,101154.41
2022-07-26T01:20:10.511Z,101144.56
2022-07-26T01:22:37.277Z,101149.41
2022-07-26T01:25:05.146Z,101134.41
2022-07-26T01:27:34.266Z,101149.34
2022-07-26T01:30:01.094Z,101109.72
2022-07-26T01:32:27.882Z,101125.25
2022-07-26T01:34:54.949Z,101132.31
2022-07-26T01:37:21.658Z,101129.97
2022-07-26T01:39:48.358Z,101168.13
2022-07-26T01:42:15.142Z,101153.38
2022-07-26T01:44:41.994Z,101153.91
2022-07-26T01:47:08.947Z,101162.00
2022-07-26T01:49:35.715Z,101134.47
2022-07-26T01:52:02.411Z,101165.31
2022-07-26T01:54:29.372Z,101151.59
2022-07-26T01:56:56.029Z,101168.38
2022-07-26T01:59:22.793Z,101159.06
2022-07-26T02:01:49.603Z,101148.31
2022-07-26T02:04:34.856Z,101177.13
2022-07-26T02:07:04.009Z,101164.13
2022-07-26T02:09:38.031Z,101167.25
2022-07-26T02:12:06.818Z,101156.00
2022-07-26T02:14:33.551Z,101155.47
2022-07-26T02:17:00.449Z,101159.88
2022-07-26T02:19:28.906Z,101153.19
2022-07-26T02:21:56.175Z,101169.13
2022-07-26T02:24:23.109Z,101138.06
2022-07-26T02:26:50.049Z,101150.75
2022-07-26T02:29:16.952Z,101163.41
2022-07-26T02:31:48.239Z,101125.91
2022-07-26T02:34:15.681Z,101140.41
2022-07-26T02:36:42.410Z,101114.28
2022-07-26T02:39:09.240Z,101157.38
2022-07-26T02:41:35.910Z,101155.75
2022-07-26T02:44:02.750Z,101156.44
2022-07-26T02:46:29.787Z,101154.25
2022-07-26T02:48:56.664Z,101148.38
2022-07-26T02:51:23.469Z,101152.84
2022-07-26T02:53:50.135Z,101166.78
2022-07-26T02:56:16.849Z,101165.59
2022-07-26T02:58:43.486Z,101160.88
2022-07-26T03:01:10.476Z,101167.00
2022-07-26T03:03:37.295Z,101166.03
2022-07-26T03:06:05.106Z,101154.94
2022-07-26T03:08:32.040Z,101161.75
2022-07-26T03:11:00.116Z,101157.34
2022-07-26T03:13:26.772Z,101171.94
2022-07-26T03:15:53.537Z,101157.41
2022-07-26T03:18:20.251Z,101152.06
2022-07-26T03:20:47.045Z,101106.41
2022-07-26T03:23:14.032Z,101135.47
2022-07-26T03:25:40.748Z,101114.72
2022-07-26T03:28:07.583Z,101117.44
2022-07-26T03:30:34.525Z,101154.31
2022-07-26T03:33:01.239Z,101173.78
2022-07-26T03:35:27.973Z,101166.47
2022-07-26T03:37:54.693Z,101163.69
2022-07-26T03:40:21.454Z,101161.09
2022-07-26T03:42:48.395Z,101170.66
2022-07-26T03:45:16.285Z,101191.84
2022-07-26T03:47:43.670Z,101170.31
2022-07-26T03:50:11.499Z,101176.69
2022-07-26T03:52:38.363Z,101183.03
2022-07-26T03:55:26.385Z,101161.22
2022-07-26T03:57:53.619Z,101174.75
2022-07-26T04:00:20.320Z,101165.06
2022-07-26T04:02:47.142Z,101146.88
2022-07-26T04:05:13.871Z,101163.28
2022-07-26T04:07:52.701Z,101177.09
2022-07-26T04:10:21.498Z,101185.81
2022-07-26T04:12:48.463Z,101188.09
2022-07-26T04:15:17.244Z,101184.16
2022-07-26T04:17:44.130Z,101191.44
2022-07-26T04:20:11.958Z,101189.19
2022-07-26T04:22:40.102Z,101175.09
2022-07-26T04:25:08.062Z,101185.72
2022-07-26T04:27:35.892Z,101199.84
2022-07-26T04:30:03.358Z,101190.81
2022-07-26T04:32:30.048Z,101197.31
2022-07-26T04:34:56.729Z,101210.25
2022-07-26T04:37:23.475Z,101194.81
2022-07-26T04:39:54.737Z,101181.97
2022-07-26T04:42:21.928Z,101216.03
2022-07-26T04:44:48.680Z,101177.38
2022-07-26T04:47:15.445Z,101206.91
2022-07-26T04:49:42.147Z,101199.03
2022-07-26T04:52:08.930Z,101194.81
2022-07-26T04:54:35.654Z,101204.53
2022-07-26T04:57:02.358Z,101198.69
2022-07-26T04:59:29.073Z,101153.16
2022-07-26T05:01:59.767Z,101169.59
2022-07-26T05:04:26.900Z,101165.81
2022-07-26T05:06:53.568Z,101173.44
2022-07-26T05:09:20.362Z,101206.16
2022-07-26T05:11:47.054Z,101182.66
2022-07-26T05:14:13.730Z,101184.84
2022-07-26T05:16:44.346Z,101193.44
2022-07-26T05:19:13.524Z,101173.13
2022-07-26T05:21:40.192Z,101173.69
2022-07-26T05:24:07.745Z,101197.16
2022-07-26T05:26:35.173Z,101203.91
2022-07-26T05:29:01.888Z,101200.91
2022-07-26T05:31:29.100Z,101202.28
2022-07-26T05:33:55.884Z,101210.34
2022-07-26T05:36:22.577Z,101213.47
2022-07-26T05:38:49.267Z,101212.06
2022-07-26T05:41:16.498Z,101209.59
2022-07-26T05:43:43.251Z,101225.00
2022-07-26T05:46:11.491Z,101203.88
2022-07-26T05:48:39.795Z,101230.41
2022-07-26T05:51:06.649Z,101220.59
2022-07-26T05:53:33.818Z,101218.63
2022-07-26T05:56:04.639Z,101231.00
2022-07-26T05:58:31.615Z,101245.09
2022-07-26T06:00:58.336Z,101201.59
2022-07-26T06:03:25.966Z,101219.38
2022-07-26T06:05:57.438Z,101204.13
2022-07-26T06:08:26.178Z,101247.06
2022-07-26T06:10:53.075Z,101229.88
2022-07-26T06:13:19.838Z,101206.53
2022-07-26T06:15:47.317Z,101198.59
2022-07-26T06:18:14.492Z,101207.06
2022-07-26T06:20:43.130Z,101244.84
2022-07-26T06:23:10.275Z,101259.22
2022-07-26T06:25:38.046Z,101257.72
2022-07-26T06:28:06.170Z,101218.94
2022-07-26T06:30:32.902Z,101256.13
2022-07-26T06:32:59.746Z,101240.13
2022-07-26T06:35:31.030Z,101237.94
2022-07-26T06:38:00.838Z,101236.88
2022-07-26T06:40:29.946Z,101269.50
2022-07-26T06:42:58.965Z,101245.38
2022-07-26T06:45:30.551Z,101262.66
2022-07-26T06:47:57.359Z,101284.63
2022-07-26T06:50:25.752Z,101282.50
2022-07-26T06:52:52.639Z,101304.28
2022-07-26T06:55:19.366Z,101251.59
2022-07-26T06:57:50.418Z,101291.91
2022-07-26T07:00:18.328Z,101296.09
2022-07-26T07:02:45.398Z,101298.03
2022-07-26T07:05:12.566Z,101279.72
2022-07-26T07:07:39.674Z,101268.00
2022-07-26T07:10:10.231Z,101299.41
2022-07-26T07:12:40.589Z,101293.13
2022-07-26T07:15:07.866Z,101273.00
2022-07-26T07:17:35.100Z,101281.50
2022-07-26T07:20:03.816Z,101279.81
2022-07-26T07:22:30.952Z,101295.41
2022-07-26T07:25:01.225Z,101299.59
2022-07-26T07:27:29.816Z,101267.00
2022-07-26T07:29:56.574Z,101277.16
2022-07-26T07:32:24.627Z,101280.09
2022-07-26T07:34:51.567Z,101280.66
2022-07-26T07:37:19.967Z,101289.91
2022-07-26T07:39:48.730Z,101310.28
2022-07-26T07:42:17.814Z,101300.31
2022-07-26T07:44:44.567Z,101278.06
2022-07-26T07:47:12.609Z,101260.50
2022-07-26T07:49:39.348Z,101276.28
2022-07-26T07:52:06.662Z,101310.38
2022-07-26T07:54:33.402Z,101291.41
2022-07-26T07:57:00.153Z,101287.16
2022-07-26T07:59:27.526Z,101314.69
2022-07-26T08:01:55.689Z,101286.25
2022-07-26T08:04:22.469Z,101303.06
2022-07-26T08:06:51.090Z,101302.34
2022-07-26T08:09:18.846Z,101338.78
2022-07-26T08:11:45.836Z,101306.28
2022-07-26T08:14:18.294Z,101291.72
2022-07-26T08:16:45.184Z,101328.78
2022-07-26T08:19:12.396Z,101272.53
2022-07-26T08:21:39.363Z,101293.44
2022-07-26T08:24:06.815Z,101302.03
2022-07-26T08:26:33.845Z,101322.06
2022-07-26T08:29:00.712Z,101330.78
2022-07-26T08:31:30.501Z,101282.91
2022-07-26T08:33:57.668Z,101283.34
2022-07-26T08:36:31.804Z,101311.06
2022-07-26T08:38:59.913Z,101302.75
2022-07-26T08:41:26.630Z,101301.78
2022-07-26T08:43:53.961Z,101313.06
2022-07-26T08:46:27.806Z,101337.56
2022-07-26T08:48:56.843Z,101319.56
2022-07-26T08:51:25.108Z,101343.78
2022-07-26T08:54:00.590Z,101321.38
2022-07-26T08:56:31.762Z,101348.34
2022-07-26T08:58:58.511Z,101356.13
2022-07-26T09:01:27.494Z,101371.91
2022-07-26T09:03:54.407Z,101372.03
2022-07-26T09:06:28.097Z,101347.91
2022-07-26T09:09:10.847Z,101348.72
2022-07-26T09:11:38.094Z,101322.78
2022-07-26T09:14:06.631Z,101353.34
2022-07-26T09:16:37.546Z,101380.50
2022-07-26T09:19:19.347Z,101375.22
2022-07-26T09:21:46.780Z,101373.13
2022-07-26T09:24:29.342Z,101369.88
2022-07-26T09:26:57.237Z,101358.19
2022-07-26T09:29:24.051Z,101345.56
2022-07-26T09:31:50.839Z,101370.78
2022-07-26T09:34:35.821Z,101351.53
2022-07-26T09:37:04.175Z,101343.22
2022-07-26T09:39:33.299Z,101340.03
2022-07-26T09:42:27.355Z,101384.25
2022-07-26T09:44:56.404Z,101383.22
2022-07-26T09:47:24.033Z,101383.03
2022-07-26T09:50:11.384Z,101389.34
2022-07-26T09:52:38.733Z,101364.16
2022-07-26T09:55:07.790Z,101371.94
2022-07-26T09:57:35.452Z,101375.69
2022-07-26T10:00:07.873Z,101394.22
2022-07-26T10:02:34.875Z,101354.47
2022-07-26T10:05:01.910Z,101379.41
2022-07-26T10:07:29.020Z,101357.00
2022-07-26T10:10:07.437Z,101354.09
2022-07-26T10:12:35.532Z,101363.00
2022-07-26T10:15:02.373Z,101367.63
2022-07-26T10:17:31.641Z,101407.25
2022-07-26T10:20:09.414Z,101396.03
2022-07-26T10:22:47.091Z,101357.44
2022-07-26T10:25:20.079Z,101405.19
2022-07-26T10:27:57.775Z,101409.16
2022-07-26T10:30:33.844Z,101388.25
2022-07-26T10:33:02.360Z,101358.72
2022-07-26T10:35:36.469Z,101394.88
2022-07-26T10:38:09.402Z,101402.88
2022-07-26T10:40:37.803Z,101395.84
2022-07-26T10:43:40.567Z,101374.19
2022-07-26T10:46:20.512Z,101398.44
2022-07-26T10:49:09.113Z,101407.53
2022-07-26T10:51:38.159Z,101355.22
2022-07-26T10:54:13.687Z,101364.38
2022-07-26T10:56:41.012Z,101414.13
2022-07-26T10:59:07.908Z,101354.53
2022-07-26T11:01:35.628Z,101420.06
2022-07-26T11:04:02.639Z,101388.19
2022-07-26T11:06:30.502Z,101401.25
2022-07-26T11:08:57.245Z,101374.72
2022-07-26T11:11:32.267Z,101416.09
2022-07-26T11:14:10.390Z,101414.00
2022-07-26T11:16:42.635Z,101418.75
2022-07-26T11:19:17.184Z,101422.75
2022-07-26T11:21:46.044Z,101381.91
2022-07-26T11:24:13.644Z,101429.91
2022-07-26T11:26:46.225Z,101438.91
2022-07-26T11:29:16.751Z,101383.66
2022-07-26T11:31:51.389Z,101435.47
2022-07-26T11:34:35.639Z,101424.97
2022-07-26T11:37:05.264Z,101420.69
2022-07-26T11:39:34.243Z,101422.00
2022-07-26T11:42:13.313Z,101421.63
2022-07-26T11:44:45.042Z,101438.72
2022-07-26T11:47:20.017Z,101449.63
2022-07-26T11:49:51.977Z,101455.97
2022-07-26T11:52:32.192Z,101457.56
2022-07-26T11:54:59.639Z,101480.97
2022-07-26T11:57:32.004Z,101480.44
2022-07-26T12:00:00.311Z,101472.28
2022-07-26T12:02:28.882Z,101473.81
2022-07-26T12:05:22.229Z,101464.91
2022-07-26T12:07:57.272Z,101451.13
2022-07-26T12:10:24.388Z,101460.34
2022-07-26T12:13:06.933Z,101450.16
2022-07-26T12:15:48.049Z,101448.66
2022-07-26T12:18:30.600Z,101433.84
2022-07-26T12:21:09.337Z,101418.09
2022-07-26T12:23:48.665Z,101421.00
2022-07-26T12:26:29.290Z,101458.06
2022-07-26T12:28:57.571Z,101438.53
2022-07-26T12:31:30.073Z,101444.16
2022-07-26T12:33:58.248Z,101447.56
2022-07-26T12:36:27.992Z,101407.25
2022-07-26T12:38:56.183Z,101447.25
2022-07-26T12:41:40.435Z,101460.00
2022-07-26T12:44:12.723Z,101458.31
2022-07-26T12:46:40.146Z,101452.41
2022-07-26T12:49:07.315Z,101448.31
2022-07-26T12:51:34.731Z,101459.53
2022-07-26T12:54:01.699Z,101467.38
2022-07-26T12:56:28.383Z,101444.34
2022-07-26T12:59:01.114Z,101453.41
2022-07-26T13:01:28.954Z,101460.13
2022-07-26T13:03:56.207Z,101459.00
2022-07-26T13:06:23.070Z,101440.81
2022-07-26T13:08:50.164Z,101451.22
2022-07-26T13:11:16.897Z,101444.88
2022-07-26T13:13:43.619Z,101456.41
2022-07-26T13:16:12.270Z,101493.00
2022-07-26T13:18:39.435Z,101491.81
2022-07-26T13:21:06.378Z,101498.50
2022-07-26T13:23:33.132Z,101489.16
2022-07-26T13:26:02.459Z,101502.19
2022-07-26T13:28:30.222Z,101515.50
2022-07-26T13:30:57.082Z,101517.88
2022-07-26T13:33:23.821Z,101478.28
2022-07-26T13:35:50.641Z,101474.50
2022-07-26T13:38:19.720Z,101489.38
2022-07-26T13:40:46.568Z,101480.31
2022-07-26T13:43:13.340Z,101440.19
2022-07-26T13:45:40.174Z,101484.66
2022-07-26T13:48:07.315Z,101454.94
2022-07-26T13:50:34.209Z,101433.94
2022-07-26T13:53:00.969Z,101484.31
2022-07-26T13:55:27.673Z,101464.06
2022-07-26T13:57:56.890Z,101475.28
2022-07-26T14:00:25.077Z,101445.78
2022-07-26T14:02:51.929Z,101465.03
2022-07-26T14:05:18.971Z,101495.38
2022-07-26T14:07:45.748Z,101441.88
2022-07-26T14:10:12.473Z,101462.41
2022-07-26T14:12:40.850Z,101468.31
2022-07-26T14:15:16.701Z,101459.56
2022-07-26T14:17:47.478Z,101454.34
2022-07-26T14:20:17.165Z,101485.16
2022-07-26T14:22:44.588Z,101459.19
2022-07-26T14:25:11.899Z,101479.31
2022-07-26T14:27:38.817Z,101465.91
2022-07-26T14:30:06.466Z,101479.38
2022-07-26T14:32:33.332Z,101466.19
2022-07-26T14:35:00.114Z,101470.66
2022-07-26T14:37:42.370Z,101480.53
2022-07-26T14:40:13.690Z,101435.47
2022-07-26T14:42:40.551Z,101438.78
2022-07-26T14:45:09.505Z,101481.06
2022-07-26T14:47:36.384Z,101444.41
2022-07-26T14:50:06.759Z,101470.78
2022-07-26T14:52:34.234Z,101458.13
2022-07-26T14:55:00.998Z,101454.81
2022-07-26T14:57:27.909Z,101455.66
2022-07-26T14:59:54.650Z,101448.16
2022-07-26T15:02:21.926Z,101430.47
2022-07-26T15:04:48.735Z,101439.72
2022-07-26T15:07:15.463Z,101426.56
2022-07-26T15:09:42.289Z,101427.81
2022-07-26T15:12:09.172Z,101492.63
2022-07-26T15:14:37.051Z,101489.59
2022-07-26T15:17:03.798Z,101457.94
2022-07-26T15:19:30.604Z,101433.06
2022-07-26T15:21:59.028Z,101483.97
2022-07-26T15:24:27.213Z,101454.31
2022-07-26T15:26:54.068Z,101473.41
2022-07-26T15:29:20.938Z,101454.75
2022-07-26T15:31:49.444Z,101503.91
2022-07-26T15:34:16.593Z,101462.16
2022-07-26T15:36:43.320Z,101464.53
2022-07-26T15:39:18.253Z,101459.00
2022-07-26T15:41:47.262Z,101485.28
2022-07-26T15:44:17.480Z,101482.09
2022-07-26T15:46:48.613Z,101460.44
2022-07-26T15:49:16.750Z,101471.25
2022-07-26T15:51:43.811Z,101442.19
2022-07-26T15:54:12.631Z,101452.81
2022-07-26T15:56:39.917Z,101467.06
2022-07-26T15:59:09.727Z,101483.66
2022-07-26T16:01:37.104Z,101471.91
2022-07-26T16:04:05.382Z,101506.00
2022-07-26T16:06:35.843Z,101473.56
2022-07-26T16:09:16.614Z,101464.66
2022-07-26T16:11:45.591Z,101435.53
2022-07-26T16:14:12.466Z,101457.63
2022-07-26T16:16:39.242Z,101458.97
2022-07-26T16:19:06.034Z,101476.81
2022-07-26T16:21:32.928Z,101464.78
2022-07-26T16:24:04.428Z,101463.94
2022-07-26T16:26:33.587Z,101481.94
2022-07-26T16:29:00.926Z,101520.34
2022-07-26T16:31:28.013Z,101518.03
2022-07-26T16:33:54.745Z,101480.16
2022-07-26T16:36:21.646Z,101475.28
2022-07-26T16:38:48.521Z,101453.78
2022-07-26T16:41:15.337Z,101483.00
2022-07-26T16:43:43.053Z,101489.44
2022-07-26T16:46:10.077Z,101509.06
2022-07-26T16:48:37.040Z,101483.66
2022-07-26T16:51:04.070Z,101485.47
2022-07-26T16:53:30.883Z,101454.75
2022-07-26T16:55:57.641Z,101452.50
2022-07-26T16:58:24.356Z,101453.69
2022-07-26T17:00:51.127Z,101513.16
2022-07-26T17:03:18.450Z,101487.25
2022-07-26T17:05:46.395Z,101480.13
2022-07-26T17:08:13.196Z,101478.25
2022-07-26T17:10:39.936Z,101461.78
2022-07-26T17:13:06.776Z,101471.63
2022-07-26T17:15:33.566Z,101469.47
2022-07-26T17:18:03.174Z,101488.19
2022-07-26T17:20:39.134Z,101476.09
2022-07-26T17:23:06.150Z,101492.19
2022-07-26T17:25:41.521Z,101482.59
2022-07-26T17:28:13.924Z,101502.81
2022-07-26T17:30:40.903Z,101457.56
2022-07-26T17:33:07.729Z,101490.38
2022-07-26T17:35:34.522Z,101497.28
2022-07-26T17:38:01.218Z,101446.13
2022-07-26T17:40:29.861Z,101485.09
2022-07-26T17:42:56.672Z,101462.28
2022-07-26T17:45:23.484Z,101507.09
2022-07-26T17:47:50.272Z,101474.66
2022-07-26T17:50:36.569Z,101452.09
2022-07-26T17:53:04.422Z,101519.16
2022-07-26T17:55:31.285Z,101449.75
2022-07-26T17:57:57.990Z,101486.56
2022-07-26T18:00:28.745Z,101505.94
2022-07-26T18:02:57.007Z,101469.66
2022-07-26T18:05:30.146Z,101501.44
2022-07-26T18:07:59.890Z,101493.78
2022-07-26T18:10:27.727Z,101494.34
2022-07-26T18:12:54.919Z,101511.72
2022-07-26T18:15:21.940Z,101506.25
2022-07-26T18:17:48.740Z,101441.53
2022-07-26T18:20:15.495Z,101522.94
2022-07-26T18:22:42.283Z,101522.34
2022-07-26T18:25:12.828Z,101490.75
2022-07-26T18:27:39.673Z,101460.03
2022-07-26T18:30:07.117Z,101512.38
2022-07-26T18:32:34.979Z,101491.53
2022-07-26T18:35:01.874Z,101512.25
2022-07-26T18:37:28.614Z,101506.69
2022-07-26T18:39:57.882Z,101498.44
2022-07-26T18:42:25.518Z,101514.50
2022-07-26T18:44:52.377Z,101513.13
2022-07-26T18:47:19.028Z,101523.66
2022-07-26T18:49:45.778Z,101523.13
2022-07-26T18:52:12.435Z,101517.66
2022-07-26T18:54:40.324Z,101534.00
2022-07-26T18:57:07.080Z,101519.91
2022-07-26T18:59:33.819Z,101531.81
2022-07-26T19:02:00.645Z,101517.94
2022-07-26T19:04:28.395Z,101526.84
2022-07-26T19:06:55.967Z,101528.63
2022-07-26T19:09:22.780Z,101531.53
2022-07-26T19:11:49.784Z,101551.63
2022-07-26T19:14:16.459Z,101529.94
2022-07-26T19:16:43.515Z,101548.81
2022-07-26T19:19:10.851Z,101556.75
2022-07-26T19:21:38.195Z,101549.59
2022-07-26T19:24:05.461Z,101552.66
2022-07-26T19:26:32.260Z,101535.81
2022-07-26T19:28:58.973Z,101558.16
2022-07-26T19:31:28.192Z,101557.59
2022-07-26T19:33:54.902Z,101552.00
2022-07-26T19:36:26.387Z,101562.00
2022-07-26T19:38:57.620Z,101557.59
2022-07-26T19:41:26.441Z,101572.16
2022-07-26T19:43:53.215Z,101544.00
2022-07-26T19:46:19.911Z,101567.31
2022-07-26T19:48:49.723Z,101549.50
2022-07-26T19:51:16.719Z,101562.56
2022-07-26T19:53:46.498Z,101567.69
2022-07-26T19:56:16.060Z,101555.56
2022-07-26T19:58:42.782Z,101577.59
2022-07-26T20:01:11.051Z,101576.63
2022-07-26T20:03:37.883Z,101531.53
2022-07-26T20:06:04.735Z,101524.56
2022-07-26T20:08:31.550Z,101564.84
2022-07-26T20:10:58.250Z,101572.41
2022-07-26T20:13:25.082Z,101567.66
2022-07-26T20:15:51.916Z,101587.25
2022-07-26T20:18:22.152Z,101580.16
2022-07-26T20:20:56.255Z,101569.22
2022-07-26T20:23:24.028Z,101591.31
2022-07-26T20:25:50.990Z,101597.84
2022-07-26T20:28:18.088Z,101573.72
2022-07-26T20:30:48.546Z,101590.25
2022-07-26T20:33:15.691Z,101605.19
2022-07-26T20:35:42.538Z,101613.88
2022-07-26T20:38:09.443Z,101591.19
2022-07-26T20:40:36.385Z,101606.75
2022-07-26T20:43:03.536Z,101590.72
2022-07-26T20:45:30.428Z,101586.34
2022-07-26T20:47:57.136Z,101603.97
2022-07-26T20:50:24.114Z,101617.09
2022-07-26T20:52:50.960Z,101604.41
2022-07-26T20:55:20.850Z,101621.09
2022-07-26T20:57:50.681Z,101602.25
2022-07-26T21:00:20.870Z,101624.03
2022-07-26T21:02:47.841Z,101613.81
2022-07-26T21:05:14.793Z,101617.59
2022-07-26T21:07:55.770Z,101621.78
2022-07-26T21:10:26.343Z,101621.16
2022-07-26T21:12:53.190Z,101620.31
2022-07-26T21:15:19.928Z,101627.66
2022-07-26T21:17:46.679Z,101625.44
2022-07-26T21:20:13.491Z,101626.75
2022-07-26T21:22:40.282Z,101633.72
2022-07-26T21:25:07.500Z,101638.81
2022-07-26T21:27:34.193Z,101621.09
2022-07-26T21:30:00.937Z,101631.81
2022-07-26T21:32:31.575Z,101644.03
2022-07-26T21:34:59.585Z,101633.81
2022-07-26T21:37:26.917Z,101642.81
2022-07-26T21:39:53.857Z,101637.09
2022-07-26T21:42:20.539Z,101633.97
2022-07-26T21:44:47.228Z,101642.88
2022-07-26T21:47:14.176Z,101651.16
2022-07-26T21:49:40.894Z,101639.41
2022-07-26T21:52:07.597Z,101636.31
2022-07-26T21:54:34.272Z,101646.00
2022-07-26T21:57:01.016Z,101651.97
2022-07-26T21:59:27.755Z,101642.22
2022-07-26T22:01:54.548Z,101653.25
2022-07-26T22:04:22.472Z,101652.53
2022-07-26T22:06:49.275Z,101652.66
2022-07-26T22:09:15.994Z,101639.09
2022-07-26T22:11:42.914Z,101638.75
2022-07-26T22:14:09.677Z,101606.59
2022-07-26T22:16:36.517Z,101649.38
2022-07-26T22:19:03.366Z,101654.94
2022-07-26T22:21:30.164Z,101641.31
2022-07-26T22:23:56.950Z,101649.31
2022-07-26T22:26:27.232Z,101651.56
2022-07-26T22:28:54.095Z,101651.38
2022-07-26T22:31:20.831Z,101645.94
2022-07-26T22:33:47.598Z,101642.69
2022-07-26T22:36:14.315Z,101657.78
2022-07-26T22:38:41.413Z,101633.84
2022-07-26T22:41:08.231Z,101658.25
2022-07-26T22:43:35.015Z,101640.66
2022-07-26T22:46:01.944Z,101642.19
2022-07-26T22:48:28.754Z,101654.25
2022-07-26T22:50:55.472Z,101641.66
2022-07-26T22:53:22.174Z,101636.31
2022-07-26T22:55:49.053Z,101633.06
2022-07-26T22:58:15.705Z,101605.63
2022-07-26T23:00:42.881Z,101635.81
2022-07-26T23:03:17.630Z,101644.38
2022-07-26T23:05:48.047Z,101631.34
2022-07-26T23:08:46.599Z,101645.16
2022-07-26T23:11:02.274Z,101637.75
2022-07-26T23:13:29.006Z,101644.88
2022-07-26T23:16:00.483Z,101644.31
2022-07-26T23:18:27.985Z,101647.34
2022-07-26T23:20:54.833Z,101637.47
2022-07-26T23:23:21.576Z,101645.22
2022-07-26T23:25:50.997Z,101646.28
2022-07-26T23:28:35.553Z,101621.97
2022-07-26T23:31:08.722Z,101640.66
2022-07-26T23:33:52.894Z,101639.78
2022-07-26T23:36:25.947Z,101652.22
2022-07-26T23:38:53.502Z,101642.44
2022-07-26T23:41:20.304Z,101639.88
2022-07-26T23:43:47.491Z,101640.22
2022-07-26T23:46:14.545Z,101640.72
2022-07-26T23:48:41.445Z,101652.00
2022-07-26T23:51:08.209Z,101656.09
2022-07-26T23:53:35.021Z,101652.56
2022-07-26T23:56:01.752Z,101650.25
2022-07-26T23:58:28.554Z,101649.06
